Tropical Cyclones
[Index]
Main Index Home Page Stock Weather Photos Extreme Storms Discussion Storm News and Storm Chasing Reports Tropical Cyclones / Hurricanes / Typhoons Weather Data and Links Wild Fires / Bushfires Weather Observation Techniques Weather Picture Catalogue Tornado Pictures and Reports Stock Video Footage and DVDs for sale
Season 1985-1986 Tropical Cyclone ALFRED Track Map
Season 1985-1986 Summaries: [BoM-AU] [JTWC-AU] [JTWC-SIO] [JTWC-SPAC] [JTWC-SH]
<<- Previous TC | BoM 1985-1986 Season | Next TC ->>

click for intensity scale information  Lat/long Grid: Show Hide

 Date Labels: Show Hide

Bureau of Meteorology Tropical Cyclone Data

Name: ALFRED
Number: 689 / 198586_10

02 Mar 1986 18:00 UTC to 08 Mar 1986 00:00 UTC

    date/time    lat    long    hPa   cat  kts
1986-03-02 18   14.8   150.2   1005         14          
1986-03-03 00   15.1   150.1   1006         16          
1986-03-03 06   15.4   150.0   1004         19          
1986-03-03 12   15.5   150.0   1005         19          
1986-03-03 18   15.5   150.0   1003         19          
1986-03-04 00   15.5   150.0   1004         19          
1986-03-04 06   15.5   150.0   1003         19          
1986-03-04 12   15.5   150.0   1004         19          
1986-03-04 18   15.6   150.1   1003         27          
1986-03-05 00   15.8   150.5   1005         21          
1986-03-05 06   16.0   151.0   1004         29          
1986-03-05 12   16.2   151.4   1004         27          
1986-03-05 18   16.3   152.0   1003         29          
1986-03-06 00   16.4   152.7   1003         31          
1986-03-06 06   16.5   153.5    999         33          
1986-03-06 12   16.5   155.1    995    1    35          
1986-03-06 18   16.5   155.1    995    1    35          
1986-03-07 00   16.5   156.2    995    1    37          
1986-03-07 06   16.7   158.0    995    1    37          
1986-03-07 12   17.2   160.0    994    1    41          
1986-03-07 18   17.7   162.0    992    1    43          
1986-03-08 00   18.5   164.0    990    1    47          
Winds are 10-min average.

Tropical cyclone tracks developed by Michael Bath using data from the Bureau of Meteorology and Google Maps.


[Australian Severe Weather index] [Copyright Notice] [Email Contacts] [Search This Site] [Privacy Policy]
Document: tropical_cyclone_alfred.htm Updated: 30 May 2013